Time;durP1;ratioP1;P1;durP2;ratioP2;P2;SDS_P1;SDS_P2;PMS_P1;PMS_P2;Temp;Humidity;BMP_temperature;BMP_pressure;BME280_temperature;BME280_humidity;BME280_pressure;Samples;Min_cycle;Max_cycle;Signal;HPM_P1;HPM_P2
2021/09/23 00:01:02;;;;;;;29.07;26.07;;;14.50;99.90;;;;;;4998131;28;20455;-76
2021/09/23 00:03:44;;;;;;;29.37;26.50;;;14.50;99.90;;;;;;5001794;28;20462;-76
2021/09/23 00:06:13;;;;;;;28.60;25.67;;;14.40;99.90;;;;;;5017714;28;20565;-76
2021/09/23 00:08:44;;;;;;;30.73;27.47;;;14.40;99.90;;;;;;5014883;28;21017;-76
2021/09/23 00:11:12;;;;;;;30.90;27.40;;;14.40;99.90;;;;;;4998206;28;20469;-76
2021/09/23 00:13:42;;;;;;;30.47;27.13;;;14.40;99.90;;;;;;5006959;28;20505;-76
2021/09/23 00:16:10;;;;;;;28.23;24.57;;;14.30;99.90;;;;;;5017898;28;20854;-76
2021/09/23 00:18:39;;;;;;;29.60;26.77;;;14.30;99.90;;;;;;5026372;28;20802;-76
2021/09/23 00:21:07;;;;;;;29.00;26.00;;;14.30;99.90;;;;;;4994791;28;20449;-76
2021/09/23 00:23:35;;;;;;;29.67;26.60;;;14.30;99.90;;;;;;4994629;28;20453;-76
2021/09/23 00:26:04;;;;;;;30.87;27.67;;;14.20;99.90;;;;;;5015469;28;20561;-76
2021/09/23 00:28:32;;;;;;;28.03;25.20;;;14.20;99.90;;;;;;5035228;28;20493;-76
2021/09/23 00:31:02;;;;;;;31.83;28.80;;;14.20;99.90;;;;;;5016332;28;20436;-76
2021/09/23 00:33:30;;;;;;;28.03;25.30;;;14.20;99.90;;;;;;5017201;28;20224;-76
2021/09/23 00:35:58;;;;;;;31.30;27.20;;;14.20;99.90;;;;;;5017043;28;20467;-76
2021/09/23 00:38:27;;;;;;;29.70;26.80;;;14.20;99.90;;;;;;5004933;28;21024;-76
2021/09/23 00:40:55;;;;;;;29.53;26.63;;;14.20;99.90;;;;;;4997450;28;20831;-76
2021/09/23 00:43:23;;;;;;;29.97;26.97;;;14.10;99.90;;;;;;5015192;28;20432;-76
2021/09/23 00:45:52;;;;;;;29.47;26.50;;;14.10;99.90;;;;;;5001160;28;20484;-76
2021/09/23 00:48:21;;;;;;;29.73;26.70;;;14.10;99.90;;;;;;5016174;28;20524;-76
2021/09/23 00:50:51;;;;;;;31.83;28.53;;;14.10;99.90;;;;;;5016797;28;20447;-76
2021/09/23 00:53:21;;;;;;;30.83;27.63;;;14.00;99.90;;;;;;5016637;28;20450;-76
2021/09/23 00:55:50;;;;;;;30.63;27.43;;;14.10;99.90;;;;;;5016644;28;20494;-76
2021/09/23 00:58:23;;;;;;;30.60;27.60;;;14.00;99.90;;;;;;5016956;28;20451;-76
2021/09/23 01:00:53;;;;;;;32.50;29.23;;;14.00;99.90;;;;;;5016677;28;20488;-76
2021/09/23 01:03:24;;;;;;;31.43;28.00;;;14.00;99.90;;;;;;4998037;28;20456;-76
2021/09/23 01:05:58;;;;;;;31.67;28.47;;;14.00;99.90;;;;;;4997131;28;20510;-76
2021/09/23 01:08:27;;;;;;;33.65;30.25;;;14.00;99.90;;;;;;4995823;28;20537;-76
2021/09/23 01:10:57;;;;;;;34.17;30.60;;;14.00;99.90;;;;;;4997978;28;20185;-76
2021/09/23 01:13:31;;;;;;;33.97;30.47;;;14.00;99.90;;;;;;4996710;28;20882;-76
2021/09/23 01:16:10;;;;;;;30.80;27.70;;;14.00;99.90;;;;;;4996755;28;20867;-76
2021/09/23 01:19:00;;;;;;;32.97;29.37;;;14.00;99.90;;;;;;4993350;28;20532;-76
2021/09/23 01:21:34;;;;;;;31.67;28.37;;;13.90;99.90;;;;;;4996655;28;20451;-76
2021/09/23 01:24:05;;;;;;;36.83;30.00;;;13.90;99.90;;;;;;4998571;28;21400;-76
2021/09/23 01:26:34;;;;;;;34.23;30.30;;;13.80;99.90;;;;;;5016161;28;20474;-76
2021/09/23 01:29:20;;;;;;;33.10;29.90;;;13.80;99.90;;;;;;5015008;28;20473;-76
2021/09/23 01:31:54;;;;;;;34.53;30.83;;;13.80;99.90;;;;;;4996467;28;20451;-76
2021/09/23 01:34:25;;;;;;;35.03;31.53;;;13.80;99.90;;;;;;4996440;28;20978;-76
2021/09/23 01:36:55;;;;;;;36.33;32.57;;;13.80;99.90;;;;;;4996359;28;20451;-76
2021/09/23 01:39:26;;;;;;;35.50;31.85;;;13.80;99.90;;;;;;5007292;28;20798;-76
2021/09/23 01:42:01;;;;;;;36.20;32.47;;;13.80;99.90;;;;;;5016229;28;20220;-77
2021/09/23 01:44:32;;;;;;;36.87;33.10;;;13.80;99.90;;;;;;5016650;28;20789;-76
2021/09/23 01:47:04;;;;;;;34.93;31.17;;;13.80;99.90;;;;;;5016247;28;20478;-76
2021/09/23 01:49:37;;;;;;;36.23;32.43;;;13.70;99.90;;;;;;5015712;28;20474;-76
2021/09/23 01:52:07;;;;;;;35.93;32.00;;;13.70;99.90;;;;;;5015688;28;20454;-76
2021/09/23 01:54:36;;;;;;;33.47;29.97;;;13.70;99.90;;;;;;5004900;28;20476;-76
2021/09/23 01:57:04;;;;;;;36.07;32.17;;;13.70;99.90;;;;;;4996168;28;20448;-76
2021/09/23 01:59:33;;;;;;;35.00;31.30;;;13.60;99.90;;;;;;4992795;28;20809;-76
2021/09/23 02:02:07;;;;;;;37.03;33.33;;;13.60;99.90;;;;;;4993076;28;20936;-76
2021/09/23 02:04:36;;;;;;;35.03;31.40;;;13.60;99.90;;;;;;4975898;28;20503;-76
2021/09/23 02:07:05;;;;;;;38.80;31.10;;;13.60;99.90;;;;;;4993769;28;20449;-76
2021/09/23 02:09:38;;;;;;;36.70;32.90;;;13.60;99.90;;;;;;4976949;28;20468;-76
2021/09/23 02:12:07;;;;;;;36.13;32.50;;;13.60;99.90;;;;;;5012039;28;20462;-76
2021/09/23 02:14:38;;;;;;;37.75;33.90;;;13.60;99.90;;;;;;5011213;28;20462;-76
2021/09/23 02:17:06;;;;;;;42.70;33.30;;;13.60;99.90;;;;;;5021906;28;20219;-76
2021/09/23 02:20:00;;;;;;;38.60;33.60;;;13.70;99.90;;;;;;5009312;28;20444;-76
2021/09/23 02:22:34;;;;;;;35.40;31.70;;;13.60;99.90;;;;;;4995777;28;20440;-76
2021/09/23 02:25:05;;;;;;;37.37;33.57;;;13.60;99.90;;;;;;4995774;28;20480;-76
2021/09/23 02:27:33;;;;;;;37.20;33.40;;;13.60;99.90;;;;;;4997027;28;20466;-76
2021/09/23 02:30:03;;;;;;;36.87;33.17;;;13.50;99.90;;;;;;4995706;28;20468;-76
2021/09/23 02:32:34;;;;;;;37.83;34.13;;;13.50;99.90;;;;;;5015126;28;20458;-76
2021/09/23 02:35:04;;;;;;;36.87;33.13;;;13.50;99.90;;;;;;5032989;28;20554;-76
2021/09/23 02:37:33;;;;;;;37.67;33.87;;;13.50;99.90;;;;;;5015223;28;20982;-76
2021/09/23 02:40:01;;;;;;;36.20;32.40;;;13.50;99.90;;;;;;5014553;28;20454;-76
2021/09/23 02:42:31;;;;;;;38.80;34.60;;;13.40;99.90;;;;;;4990886;28;20991;-76
2021/09/23 02:44:59;;;;;;;37.00;33.27;;;13.50;99.90;;;;;;4992151;28;20468;-76
2021/09/23 02:47:27;;;;;;;36.35;32.55;;;13.40;99.90;;;;;;5005886;28;20495;-76
2021/09/23 02:49:56;;;;;;;35.87;31.57;;;13.40;99.90;;;;;;5015135;28;20223;-76
2021/09/23 02:52:24;;;;;;;37.13;33.40;;;13.40;99.90;;;;;;5014952;28;20447;-76
2021/09/23 02:54:54;;;;;;;35.37;31.67;;;13.40;99.90;;;;;;5015298;28;20524;-76
2021/09/23 02:57:22;;;;;;;35.10;31.50;;;13.40;99.90;;;;;;5015090;28;20949;-76
2021/09/23 02:59:52;;;;;;;37.37;33.43;;;13.40;99.90;;;;;;5015010;28;20447;-76
2021/09/23 03:02:20;;;;;;;36.90;33.20;;;13.40;99.90;;;;;;5015009;28;20537;-75
2021/09/23 03:04:49;;;;;;;38.00;34.30;;;13.40;99.90;;;;;;4988763;28;20575;-76
2021/09/23 03:07:19;;;;;;;36.93;33.20;;;13.30;99.90;;;;;;4978872;28;20538;-76
2021/09/23 03:09:47;;;;;;;36.30;32.60;;;13.30;99.90;;;;;;4995194;28;20467;-76
2021/09/23 03:12:15;;;;;;;36.47;32.67;;;13.30;99.90;;;;;;4995276;28;20439;-76
2021/09/23 03:14:44;;;;;;;37.70;33.83;;;13.30;99.90;;;;;;5011927;28;20474;-76
2021/09/23 03:17:13;;;;;;;38.37;34.47;;;13.30;99.90;;;;;;5018799;28;20481;-76
2021/09/23 03:19:42;;;;;;;34.43;30.90;;;13.30;99.90;;;;;;5017287;28;20958;-76
2021/09/23 03:22:11;;;;;;;36.23;32.57;;;13.30;99.90;;;;;;5018433;28;20443;-76
2021/09/23 03:24:39;;;;;;;37.90;32.90;;;13.30;99.90;;;;;;5011720;28;20979;-76
2021/09/23 03:27:08;;;;;;;35.47;31.90;;;13.30;99.90;;;;;;4987823;28;20823;-76
2021/09/23 03:29:37;;;;;;;34.30;30.80;;;13.30;99.90;;;;;;5034456;28;20466;-76
2021/09/23 03:32:05;;;;;;;36.60;33.00;;;13.30;99.90;;;;;;5018252;28;20534;-76
2021/09/23 03:34:35;;;;;;;34.43;31.27;;;13.20;99.90;;;;;;5024201;28;20444;-76
2021/09/23 03:37:04;;;;;;;31.33;28.30;;;13.20;99.90;;;;;;5001802;28;20852;-76
2021/09/23 03:39:33;;;;;;;32.70;29.30;;;13.30;99.90;;;;;;5018144;28;20439;-76
2021/09/23 03:42:01;;;;;;;33.73;30.20;;;13.20;99.90;;;;;;5018163;28;21033;-76
2021/09/23 03:44:29;;;;;;;34.77;31.37;;;13.20;99.90;;;;;;5035588;28;20439;-76
2021/09/23 03:46:58;;;;;;;31.63;28.60;;;13.20;99.90;;;;;;5009033;28;20526;-76
2021/09/23 03:49:26;;;;;;;32.87;29.73;;;13.20;99.90;;;;;;5009420;28;20502;-76
2021/09/23 03:51:56;;;;;;;32.27;29.20;;;13.20;99.90;;;;;;5002894;28;20456;-76
2021/09/23 03:54:24;;;;;;;34.43;30.90;;;13.30;99.90;;;;;;4998322;28;20463;-76
2021/09/23 03:56:53;;;;;;;31.93;28.93;;;13.20;99.90;;;;;;5007753;28;20486;-76
2021/09/23 03:59:21;;;;;;;33.17;29.67;;;13.20;99.90;;;;;;5017836;28;20501;-76
2021/09/23 04:01:50;;;;;;;33.73;30.47;;;13.20;99.90;;;;;;5017885;28;20447;-76
2021/09/23 04:04:19;;;;;;;33.00;29.60;;;13.20;99.90;;;;;;5018365;28;20461;-76
2021/09/23 04:06:47;;;;;;;31.00;27.80;;;13.20;99.90;;;;;;5018162;28;20435;-76
2021/09/23 04:09:18;;;;;;;32.35;29.05;;;13.20;99.90;;;;;;5016486;28;20453;-76
2021/09/23 04:11:47;;;;;;;30.17;26.93;;;13.30;99.90;;;;;;5017629;28;20291;-76
2021/09/23 04:14:19;;;;;;;31.40;28.20;;;13.30;99.90;;;;;;5017178;28;20449;-76
2021/09/23 04:16:50;;;;;;;33.90;29.00;;;13.40;99.90;;;;;;5007211;28;20213;-76
2021/09/23 04:19:19;;;;;;;31.07;27.77;;;13.40;99.90;;;;;;5007627;28;20451;-76
2021/09/23 04:21:47;;;;;;;30.47;27.37;;;13.40;99.90;;;;;;5017513;28;20474;-76
2021/09/23 04:24:16;;;;;;;30.93;27.83;;;13.40;99.90;;;;;;5035091;28;20803;-76
2021/09/23 04:26:47;;;;;;;30.73;27.67;;;13.40;99.90;;;;;;5016807;28;20534;-76
2021/09/23 04:29:16;;;;;;;32.47;29.23;;;13.40;99.90;;;;;;5017270;28;20451;-76
2021/09/23 04:31:44;;;;;;;30.90;27.57;;;13.40;99.90;;;;;;5017943;28;20451;-76
2021/09/23 04:34:12;;;;;;;32.20;28.00;;;13.40;99.90;;;;;;5005081;28;20497;-76
2021/09/23 04:36:40;;;;;;;35.27;29.00;;;13.40;99.90;;;;;;5017121;28;20953;-76
2021/09/23 04:39:09;;;;;;;31.97;28.67;;;13.40;99.90;;;;;;5017089;28;20454;-76
2021/09/23 04:41:40;;;;;;;30.63;27.47;;;13.50;99.90;;;;;;5014268;28;20827;-76
2021/09/23 04:44:10;;;;;;;29.30;26.20;;;13.50;99.90;;;;;;5002599;28;20452;-76
2021/09/23 04:46:38;;;;;;;30.87;26.70;;;13.50;99.90;;;;;;4997076;28;20562;-76
2021/09/23 04:49:06;;;;;;;32.20;28.98;;;13.50;99.90;;;;;;4996604;28;20939;-76
2021/09/23 04:51:35;;;;;;;30.77;27.30;;;13.60;99.90;;;;;;4997184;28;20216;-76
2021/09/23 04:54:03;;;;;;;32.83;29.40;;;13.60;99.90;;;;;;4997045;28;21041;-76
2021/09/23 04:56:32;;;;;;;31.70;27.70;;;13.70;99.90;;;;;;4997377;28;21097;-76
2021/09/23 04:59:00;;;;;;;32.43;26.33;;;13.70;99.90;;;;;;4997175;28;20447;-76
2021/09/23 05:01:30;;;;;;;30.50;26.63;;;13.70;99.90;;;;;;4997153;28;20854;-77
2021/09/23 05:03:59;;;;;;;31.20;27.93;;;13.70;99.90;;;;;;4997360;28;20487;-77
2021/09/23 05:06:28;;;;;;;30.07;26.80;;;13.70;99.90;;;;;;4996877;28;20472;-76
2021/09/23 05:09:01;;;;;;;31.57;28.50;;;13.70;99.90;;;;;;4997442;28;20451;-76
2021/09/23 05:11:31;;;;;;;32.93;29.63;;;13.70;99.90;;;;;;4997101;28;20591;-77
2021/09/23 05:13:59;;;;;;;31.33;28.03;;;13.70;99.90;;;;;;4996902;28;20444;-77
2021/09/23 05:16:28;;;;;;;32.53;28.10;;;13.70;99.90;;;;;;4996720;28;20494;-76
2021/09/23 05:18:58;;;;;;;31.83;28.43;;;13.70;99.90;;;;;;4996971;28;20440;-76
2021/09/23 05:21:26;;;;;;;30.83;27.50;;;13.70;99.90;;;;;;5014618;28;20436;-76
2021/09/23 05:23:54;;;;;;;33.28;29.85;;;13.70;99.90;;;;;;4996069;28;20476;-76
2021/09/23 05:26:23;;;;;;;30.90;27.80;;;13.70;99.90;;;;;;4996991;28;20268;-76
2021/09/23 05:28:52;;;;;;;32.45;28.98;;;13.70;99.90;;;;;;5013901;28;20442;-77
2021/09/23 05:31:20;;;;;;;31.47;27.67;;;13.70;99.90;;;;;;4996466;28;20259;-76
2021/09/23 05:33:48;;;;;;;32.67;29.27;;;13.80;99.90;;;;;;5014394;28;20432;-76
2021/09/23 05:36:18;;;;;;;28.90;25.93;;;13.80;99.90;;;;;;5014019;28;20495;-77
2021/09/23 05:38:47;;;;;;;31.17;27.97;;;13.80;99.90;;;;;;4995844;28;20460;-76
2021/09/23 05:41:15;;;;;;;31.00;27.90;;;13.80;99.90;;;;;;4997084;28;20475;-76
2021/09/23 05:43:44;;;;;;;31.33;27.50;;;13.80;99.90;;;;;;4996261;28;20951;-77
2021/09/23 05:46:12;;;;;;;32.10;29.00;;;13.80;99.90;;;;;;4996387;28;20476;-76
2021/09/23 05:48:40;;;;;;;31.53;28.23;;;13.80;99.90;;;;;;4996471;28;20550;-76
2021/09/23 05:51:09;;;;;;;34.00;30.40;;;13.80;99.90;;;;;;4996437;28;20847;-76
2021/09/23 05:53:39;;;;;;;31.17;27.77;;;13.80;99.90;;;;;;5014287;28;20534;-76
2021/09/23 05:56:07;;;;;;;32.60;28.80;;;13.80;99.90;;;;;;4996540;28;20480;-77
2021/09/23 05:58:38;;;;;;;33.70;28.75;;;13.80;99.90;;;;;;4996557;28;21061;-77
2021/09/23 06:01:06;;;;;;;33.57;29.40;;;13.90;99.90;;;;;;4996385;28;20279;-77
2021/09/23 06:03:48;;;;;;;33.10;29.80;;;13.90;99.90;;;;;;4996514;28;20462;-76
2021/09/23 06:06:17;;;;;;;30.63;27.50;;;13.90;99.90;;;;;;4996673;28;20220;-76
2021/09/23 06:08:47;;;;;;;33.77;29.87;;;13.90;99.90;;;;;;4997439;28;20539;-76
2021/09/23 06:11:16;;;;;;;35.47;30.17;;;14.00;99.90;;;;;;4996502;28;20530;-76
2021/09/23 06:13:46;;;;;;;32.20;28.93;;;14.00;99.90;;;;;;5014329;28;20446;-75
2021/09/23 06:16:15;;;;;;;31.87;28.57;;;14.00;99.90;;;;;;4996323;28;20538;-76
2021/09/23 06:18:46;;;;;;;32.13;26.93;;;14.00;99.90;;;;;;5014230;28;20423;-76
2021/09/23 06:21:14;;;;;;;32.70;29.10;;;14.10;99.90;;;;;;4996385;28;20538;-76
2021/09/23 06:23:43;;;;;;;35.00;30.80;;;14.20;99.90;;;;;;4996195;28;20514;-75
2021/09/23 06:26:12;;;;;;;32.17;28.80;;;14.20;99.90;;;;;;4996048;28;20555;-76
2021/09/23 06:28:40;;;;;;;30.57;26.67;;;14.20;99.90;;;;;;4996247;28;20451;-75
2021/09/23 06:31:09;;;;;;;33.00;29.60;;;14.20;99.90;;;;;;5013941;28;20472;-76
2021/09/23 06:33:37;;;;;;;31.73;28.37;;;14.30;99.90;;;;;;5013996;28;20490;-76
2021/09/23 06:36:06;;;;;;;32.90;29.50;;;14.30;99.90;;;;;;4995811;28;20471;-76
2021/09/23 06:38:35;;;;;;;35.60;29.37;;;14.30;99.90;;;;;;4996259;28;20456;-77
2021/09/23 06:41:03;;;;;;;33.83;30.43;;;14.30;99.90;;;;;;5012893;28;20442;-76
2021/09/23 06:43:33;;;;;;;31.83;28.50;;;14.40;99.90;;;;;;4995629;28;20892;-76
2021/09/23 06:46:01;;;;;;;34.92;31.42;;;14.40;99.90;;;;;;4996334;28;20450;-76
2021/09/23 06:48:29;;;;;;;34.47;31.13;;;14.40;99.90;;;;;;5013264;28;20216;-76
2021/09/23 06:50:58;;;;;;;35.27;30.97;;;14.40;99.90;;;;;;4998325;28;20479;-77
2021/09/23 06:53:26;;;;;;;34.33;30.83;;;14.50;99.90;;;;;;4999356;28;20797;-76
2021/09/23 06:55:54;;;;;;;36.20;32.30;;;14.50;99.90;;;;;;5017169;28;20488;-77
2021/09/23 06:58:22;;;;;;;33.70;30.00;;;14.50;99.90;;;;;;4999535;28;20468;-77
2021/09/23 07:01:10;;;;;;;34.70;31.20;;;14.50;99.90;;;;;;5017461;28;20880;-77
2021/09/23 07:03:59;;;;;;;34.27;30.27;;;14.50;99.90;;;;;;5017364;28;20834;-77
2021/09/23 07:06:56;;;;;;;33.50;29.93;;;14.50;99.90;;;;;;4999434;28;20885;-77
2021/09/23 07:09:30;;;;;;;33.93;30.43;;;14.60;99.90;;;;;;4999322;28;20502;-76
2021/09/23 07:12:02;;;;;;;34.40;31.00;;;14.60;99.90;;;;;;4999748;28;20463;-77
2021/09/23 07:14:31;;;;;;;35.07;31.27;;;14.60;99.90;;;;;;4999033;28;20443;-76
2021/09/23 07:17:00;;;;;;;32.37;28.87;;;14.70;99.90;;;;;;4999279;28;20434;-77
2021/09/23 07:19:29;;;;;;;32.53;29.23;;;14.70;99.90;;;;;;4999033;28;20823;-77
2021/09/23 07:21:57;;;;;;;35.33;31.92;;;14.70;99.90;;;;;;4998086;28;20509;-77
2021/09/23 07:24:26;;;;;;;32.23;28.93;;;14.80;99.90;;;;;;4999124;28;20567;-76
2021/09/23 07:26:54;;;;;;;35.72;32.15;;;14.80;99.90;;;;;;4999368;28;20437;-76
2021/09/23 07:29:25;;;;;;;33.77;30.17;;;14.80;99.90;;;;;;4999154;28;20197;-77
2021/09/23 07:31:55;;;;;;;35.40;31.70;;;14.90;99.90;;;;;;4999318;28;20446;-76
2021/09/23 07:34:25;;;;;;;36.67;32.73;;;14.80;99.90;;;;;;4998905;28;20448;-76
2021/09/23 07:36:55;;;;;;;33.40;30.23;;;14.80;99.90;;;;;;4999140;28;20859;-76
2021/09/23 07:39:23;;;;;;;33.40;29.70;;;14.90;99.90;;;;;;4999094;28;20864;-75
2021/09/23 07:41:51;;;;;;;34.90;31.30;;;14.90;99.90;;;;;;4998904;28;20503;-76
2021/09/23 07:44:22;;;;;;;33.10;29.60;;;14.90;99.90;;;;;;4998760;28;20463;-76
2021/09/23 07:46:51;;;;;;;34.80;31.23;;;15.00;99.90;;;;;;4999093;28;20455;-76
2021/09/23 07:49:20;;;;;;;34.73;30.33;;;15.00;99.90;;;;;;4998817;28;20419;-75
2021/09/23 07:51:49;;;;;;;32.87;29.60;;;15.10;99.90;;;;;;4998387;28;20447;-76
2021/09/23 07:54:18;;;;;;;33.63;30.23;;;15.20;99.90;;;;;;4998784;28;20447;-77
2021/09/23 07:56:46;;;;;;;34.17;30.70;;;15.30;99.90;;;;;;4998272;28;20444;-76
2021/09/23 07:59:14;;;;;;;32.83;29.50;;;15.40;99.90;;;;;;4998220;28;20444;-77
2021/09/23 08:01:42;;;;;;;34.03;30.60;;;15.50;99.90;;;;;;5013937;28;20447;-76
2021/09/23 08:04:11;;;;;;;31.83;28.43;;;15.70;99.90;;;;;;4998163;28;20448;-77
2021/09/23 08:06:41;;;;;;;33.60;30.20;;;15.80;99.90;;;;;;4998216;28;20493;-76
2021/09/23 08:09:11;;;;;;;29.40;26.57;;;15.90;99.90;;;;;;4998324;28;20611;-77
2021/09/23 08:11:40;;;;;;;29.87;26.67;;;16.10;99.90;;;;;;4997947;28;20471;-77
2021/09/23 08:14:18;;;;;;;31.77;28.50;;;16.10;99.90;;;;;;4998593;28;20418;-76
2021/09/23 08:16:56;;;;;;;32.63;29.17;;;16.10;99.90;;;;;;4998131;28;20456;-77
2021/09/23 08:19:59;;;;;;;31.13;28.13;;;16.20;99.90;;;;;;5015071;28;20966;-77
2021/09/23 08:22:45;;;;;;;32.60;29.30;;;16.20;99.90;;;;;;4997890;28;20459;-77
2021/09/23 08:25:15;;;;;;;32.00;28.80;;;16.30;99.90;;;;;;4997703;28;20467;-76
2021/09/23 08:27:43;;;;;;;30.80;27.40;;;16.30;99.90;;;;;;4997988;28;20423;-76
2021/09/23 08:30:13;;;;;;;31.73;28.53;;;16.40;99.90;;;;;;4997698;28;20473;-76
2021/09/23 08:32:42;;;;;;;31.80;28.53;;;16.50;99.90;;;;;;4997944;28;20478;-77
2021/09/23 08:35:11;;;;;;;30.83;27.37;;;16.50;99.90;;;;;;4997542;28;20794;-77
2021/09/23 08:37:39;;;;;;;30.03;26.80;;;16.50;99.90;;;;;;4997361;28;20423;-77
2021/09/23 08:40:13;;;;;;;31.48;28.17;;;16.60;99.90;;;;;;4997164;28;20442;-77
2021/09/23 08:42:44;;;;;;;31.40;26.43;;;16.60;99.90;;;;;;4997166;28;20193;-77
2021/09/23 08:45:15;;;;;;;30.90;27.70;;;16.60;99.90;;;;;;4996302;28;20475;-77
2021/09/23 08:47:45;;;;;;;31.53;28.23;;;16.70;99.90;;;;;;4997316;28;20444;-77
2021/09/23 08:50:16;;;;;;;36.10;27.60;;;16.70;99.90;;;;;;4997264;28;20444;-77
2021/09/23 08:52:48;;;;;;;29.70;26.60;;;16.60;99.90;;;;;;4997056;28;20554;-77
2021/09/23 08:55:28;;;;;;;32.90;29.53;;;16.60;99.90;;;;;;4995703;28;20471;-77
2021/09/23 08:58:08;;;;;;;30.90;27.57;;;16.70;99.90;;;;;;4997265;28;20906;-77
2021/09/23 09:00:38;;;;;;;30.20;27.40;;;16.70;99.90;;;;;;4997245;28;20509;-77
2021/09/23 09:03:09;;;;;;;32.20;28.83;;;16.70;99.90;;;;;;4997190;28;20443;-77
2021/09/23 09:05:57;;;;;;;32.77;28.97;;;16.60;99.90;;;;;;5015195;28;20435;-77
2021/09/23 09:08:44;;;;;;;32.80;29.40;;;16.70;99.90;;;;;;5014575;28;20428;-77
2021/09/23 09:11:27;;;;;;;29.47;26.57;;;16.70;99.90;;;;;;4996979;28;20549;-77
2021/09/23 09:13:57;;;;;;;30.53;27.53;;;16.70;99.90;;;;;;4996725;28;20468;-77
2021/09/23 09:16:27;;;;;;;30.43;27.20;;;16.60;99.90;;;;;;4996667;28;20441;-77
2021/09/23 09:18:58;;;;;;;32.40;29.30;;;16.60;99.90;;;;;;4996230;28;20441;-77
2021/09/23 09:21:28;;;;;;;29.43;26.43;;;16.70;99.90;;;;;;4996693;28;20197;-76
2021/09/23 09:23:58;;;;;;;30.25;27.05;;;16.60;99.90;;;;;;4996474;28;20451;-77
2021/09/23 09:26:36;;;;;;;28.93;26.03;;;16.60;99.90;;;;;;4996692;28;20599;-77
2021/09/23 09:29:13;;;;;;;28.90;25.90;;;16.70;99.90;;;;;;4996831;28;20419;-77
2021/09/23 09:31:47;;;;;;;29.00;26.10;;;16.70;99.90;;;;;;4996621;28;21019;-77
2021/09/23 09:34:19;;;;;;;26.07;23.57;;;16.70;99.90;;;;;;4997057;28;20463;-77
2021/09/23 09:36:53;;;;;;;26.20;23.73;;;16.60;99.90;;;;;;4996745;28;20449;-77
2021/09/23 09:39:23;;;;;;;25.97;23.43;;;16.60;99.90;;;;;;4996459;28;20426;-77
2021/09/23 09:41:54;;;;;;;25.43;22.93;;;16.70;99.90;;;;;;4996459;28;20435;-77
2021/09/23 09:44:24;;;;;;;25.13;22.87;;;16.70;99.90;;;;;;4996242;28;20487;-77
2021/09/23 09:46:55;;;;;;;22.37;20.30;;;16.80;99.90;;;;;;4996330;28;20447;-77
2021/09/23 09:49:25;;;;;;;24.00;21.67;;;16.80;99.90;;;;;;4996571;28;20465;-77
2021/09/23 09:51:58;;;;;;;22.10;20.00;;;16.80;99.90;;;;;;4996379;28;20415;-78
2021/09/23 09:54:32;;;;;;;21.23;19.10;;;16.90;99.90;;;;;;4996128;28;20523;-77
2021/09/23 09:57:03;;;;;;;22.02;19.92;;;16.90;99.90;;;;;;4995293;28;20451;-76
2021/09/23 09:59:36;;;;;;;20.83;18.60;;;17.00;99.90;;;;;;4996467;28;20235;-77
2021/09/23 10:02:05;;;;;;;18.73;16.93;;;17.10;99.90;;;;;;4996293;28;20452;-77
2021/09/23 10:04:34;;;;;;;17.93;16.33;;;17.10;99.90;;;;;;5013666;28;20406;-77
2021/09/23 10:07:04;;;;;;;16.80;15.20;;;17.20;99.90;;;;;;4996046;28;20429;-77
2021/09/23 10:09:36;;;;;;;16.73;14.60;;;17.30;99.90;;;;;;4995920;28;20974;-77
2021/09/23 10:12:07;;;;;;;16.33;14.70;;;17.30;99.90;;;;;;4996017;28;20440;-77
2021/09/23 10:14:41;;;;;;;15.90;14.50;;;17.40;99.90;;;;;;4995833;28;20458;-77
2021/09/23 10:17:10;;;;;;;15.50;13.90;;;17.50;99.90;;;;;;4995809;28;20472;-77
2021/09/23 10:19:40;;;;;;;16.30;14.80;;;17.50;99.90;;;;;;4996010;28;20456;-77
2021/09/23 10:22:11;;;;;;;15.03;13.57;;;17.60;99.90;;;;;;4995974;28;21013;-77
2021/09/23 10:24:40;;;;;;;16.13;14.27;;;17.70;99.90;;;;;;5012841;28;20446;-78
2021/09/23 10:29:54;;;;;;;17.87;14.60;;;17.80;99.90;;;;;;4995197;28;20453;-77
2021/09/23 10:32:23;;;;;;;16.38;14.85;;;17.80;99.90;;;;;;4995594;28;20436;-77
2021/09/23 10:34:52;;;;;;;17.47;15.53;;;17.90;99.90;;;;;;4996543;28;20220;-77
2021/09/23 10:37:23;;;;;;;16.47;14.97;;;18.00;99.90;;;;;;4995790;28;20448;-77
2021/09/23 10:39:55;;;;;;;17.45;15.65;;;18.00;99.90;;;;;;4995026;28;20535;-77
2021/09/23 10:42:24;;;;;;;16.80;15.20;;;18.10;99.90;;;;;;4995822;28;20962;-77
2021/09/23 10:44:57;;;;;;;16.33;14.80;;;18.20;99.90;;;;;;4996121;28;20998;-77
2021/09/23 10:47:32;;;;;;;16.70;14.90;;;18.30;99.90;;;;;;4995708;28;20444;-78
2021/09/23 10:50:01;;;;;;;16.63;14.70;;;18.30;99.90;;;;;;4995670;28;20815;-77
2021/09/23 10:52:34;;;;;;;16.87;14.57;;;18.30;99.90;;;;;;4996450;28;20422;-77
2021/09/23 10:55:05;;;;;;;17.30;15.50;;;18.30;99.90;;;;;;4995504;28;20493;-78
2021/09/23 10:57:33;;;;;;;17.73;16.20;;;18.30;99.90;;;;;;4995761;28;20518;-77
2021/09/23 11:00:06;;;;;;;17.00;15.47;;;18.20;99.90;;;;;;4995575;28;20460;-78
2021/09/23 11:02:36;;;;;;;17.37;15.53;;;18.20;99.90;;;;;;4995731;28;20436;-76
2021/09/23 11:05:11;;;;;;;16.57;14.80;;;18.20;99.90;;;;;;4995725;28;20467;-76
2021/09/23 11:07:43;;;;;;;16.83;14.93;;;18.20;99.90;;;;;;4995469;28;20857;-77
2021/09/23 11:10:14;;;;;;;18.33;16.53;;;18.20;99.90;;;;;;4994430;28;20442;-77
2021/09/23 11:12:47;;;;;;;16.10;14.80;;;18.30;99.90;;;;;;4996447;28;20436;-77
2021/09/23 11:15:21;;;;;;;18.08;16.27;;;18.40;99.90;;;;;;4994899;28;20443;-77
2021/09/23 11:17:51;;;;;;;15.73;13.73;;;18.40;99.90;;;;;;4995441;28;20699;-78
2021/09/23 11:20:23;;;;;;;15.47;13.90;;;18.40;99.90;;;;;;4996189;28;20447;-77
2021/09/23 11:22:54;;;;;;;14.00;12.77;;;18.50;99.90;;;;;;5013114;28;20420;-78
2021/09/23 11:25:26;;;;;;;16.57;15.07;;;18.50;99.90;;;;;;4995706;28;20467;-78
2021/09/23 11:27:57;;;;;;;15.97;14.47;;;18.40;99.90;;;;;;4996075;28;20934;-78
2021/09/23 11:30:29;;;;;;;23.23;16.13;;;18.40;99.90;;;;;;4996345;28;20460;-78
2021/09/23 11:33:04;;;;;;;51.40;21.97;;;18.40;99.90;;;;;;4995299;28;20999;-78
2021/09/23 11:35:34;;;;;;;14.77;13.37;;;18.40;99.90;;;;;;4995212;28;20442;-77
2021/09/23 11:38:03;;;;;;;13.40;12.20;;;18.40;99.90;;;;;;4997856;28;20463;-77
2021/09/23 11:40:34;;;;;;;13.30;12.00;;;18.30;99.90;;;;;;4998656;28;20451;-77
2021/09/23 11:43:06;;;;;;;14.13;12.63;;;18.30;99.90;;;;;;4998609;28;20446;-77
2021/09/23 11:45:38;;;;;;;15.88;14.38;;;18.30;99.90;;;;;;4997341;28;20466;-77
2021/09/23 11:48:10;;;;;;;14.73;13.30;;;18.40;99.90;;;;;;4999734;28;20551;-77
2021/09/23 11:50:40;;;;;;;14.50;13.10;;;18.40;99.90;;;;;;5016337;28;20782;-77
2021/09/23 11:53:10;;;;;;;12.77;11.47;;;18.30;99.90;;;;;;4998651;28;20454;-77
2021/09/23 11:55:42;;;;;;;13.63;12.23;;;18.30;99.90;;;;;;4998416;28;20563;-77
2021/09/23 11:58:13;;;;;;;14.20;12.80;;;18.30;99.90;;;;;;4998581;28;20456;-77
2021/09/23 12:00:47;;;;;;;13.33;11.93;;;18.20;99.90;;;;;;4998170;28;20959;-77
2021/09/23 12:03:17;;;;;;;14.00;12.47;;;18.30;99.90;;;;;;4998311;28;20451;-77
2021/09/23 12:05:47;;;;;;;13.90;12.50;;;18.20;99.90;;;;;;4998624;28;20482;-77
2021/09/23 12:08:18;;;;;;;14.37;12.17;;;18.20;99.90;;;;;;4998661;28;20458;-77
2021/09/23 12:10:55;;;;;;;14.47;13.03;;;18.20;99.90;;;;;;4998972;28;20433;-77
2021/09/23 12:13:45;;;;;;;13.10;12.10;;;18.20;99.90;;;;;;4998507;28;20997;-77
2021/09/23 12:16:18;;;;;;;13.07;11.33;;;18.20;99.90;;;;;;4998065;28;21033;-77
2021/09/23 12:18:49;;;;;;;11.30;10.30;;;18.20;99.90;;;;;;4998232;28;20340;-77
2021/09/23 12:21:23;;;;;;;14.27;12.00;;;18.20;99.90;;;;;;4997898;28;20193;-77
2021/09/23 12:23:52;;;;;;;11.63;10.53;;;18.20;99.90;;;;;;4998400;28;20454;-77
2021/09/23 12:26:27;;;;;;;13.43;12.05;;;18.20;99.90;;;;;;4997913;28;20965;-77
2021/09/23 12:29:01;;;;;;;12.00;10.80;;;18.20;99.90;;;;;;4998277;28;20660;-77
2021/09/23 12:31:37;;;;;;;11.10;10.07;;;18.30;99.90;;;;;;4997719;28;20514;-77
2021/09/23 12:34:13;;;;;;;11.77;10.60;;;18.30;99.90;;;;;;4997971;28;21014;-77
2021/09/23 12:36:43;;;;;;;12.57;10.60;;;18.20;99.90;;;;;;4997605;28;20479;-77
2021/09/23 12:39:18;;;;;;;9.97;8.80;;;18.30;99.90;;;;;;4997723;28;20455;-77
2021/09/23 12:42:09;;;;;;;11.63;10.43;;;18.20;99.90;;;;;;4997804;28;20479;-77
2021/09/23 12:44:40;;;;;;;11.23;10.33;;;18.20;99.90;;;;;;4997481;28;20503;-77
2021/09/23 12:47:13;;;;;;;11.60;10.40;;;18.20;99.90;;;;;;4997224;28;20438;-77
2021/09/23 12:49:45;;;;;;;11.67;10.20;;;18.30;99.90;;;;;;5015476;28;20402;-77